createdAt,value
2024-05-09T00:00:44.639Z,0.43
2024-05-09T00:03:12.756Z,0.52
2024-05-09T00:05:41.808Z,0.55
2024-05-09T00:08:11.219Z,0.50
2024-05-09T00:10:40.701Z,0.90
2024-05-09T00:13:11.120Z,0.93
2024-05-09T00:15:39.511Z,1.50
2024-05-09T00:18:09.068Z,0.57
2024-05-09T00:20:40.162Z,0.30
2024-05-09T00:23:15.878Z,1.23
2024-05-09T00:25:44.811Z,0.90
2024-05-09T00:28:13.339Z,1.73
2024-05-09T00:30:41.517Z,0.73
2024-05-09T00:33:10.744Z,0.73
2024-05-09T00:35:39.903Z,1.52
2024-05-09T00:38:08.387Z,0.20
2024-05-09T00:40:42.356Z,1.55
2024-05-09T00:43:13.170Z,1.45
2024-05-09T00:45:42.719Z,1.05
2024-05-09T00:48:14.981Z,1.30
2024-05-09T00:50:46.667Z,1.35
2024-05-09T00:53:17.437Z,1.25
2024-05-09T00:55:46.861Z,0.63
2024-05-09T00:58:18.890Z,0.50
2024-05-09T01:00:47.158Z,1.52
2024-05-09T01:03:15.250Z,1.58
2024-05-09T01:05:44.697Z,1.08
2024-05-09T01:08:13.439Z,1.27
2024-05-09T01:10:44.839Z,1.00
2024-05-09T01:13:14.002Z,0.75
2024-05-09T01:15:42.401Z,0.75
2024-05-09T01:18:12.534Z,0.70
2024-05-09T01:20:44.340Z,0.70
2024-05-09T01:23:15.773Z,0.40
2024-05-09T01:25:46.196Z,1.02
2024-05-09T01:28:15.184Z,1.00
2024-05-09T01:30:43.365Z,1.40
2024-05-09T01:33:12.463Z,0.75
2024-05-09T01:35:42.505Z,1.10
2024-05-09T01:38:17.426Z,0.93
2024-05-09T01:40:47.005Z,0.70
2024-05-09T01:43:16.080Z,0.35
2024-05-09T01:45:43.865Z,1.50
2024-05-09T01:48:11.940Z,0.60
2024-05-09T01:50:42.503Z,0.85
2024-05-09T01:53:14.248Z,0.50
2024-05-09T01:55:43.433Z,0.35
2024-05-09T01:58:11.444Z,0.52
2024-05-09T02:00:42.435Z,0.98
2024-05-09T02:03:15.761Z,0.75
2024-05-09T02:05:47.533Z,0.40
2024-05-09T02:08:21.114Z,0.40
2024-05-09T02:10:50.391Z,0.93
2024-05-09T02:13:18.843Z,0.30
2024-05-09T02:15:46.800Z,0.22
2024-05-09T02:18:14.708Z,0.63
2024-05-09T02:20:43.427Z,0.47
2024-05-09T02:23:12.258Z,0.43
2024-05-09T02:25:43.819Z,0.40
2024-05-09T02:28:11.661Z,0.28
2024-05-09T02:30:41.605Z,1.15
2024-05-09T02:33:12.865Z,0.32
2024-05-09T02:35:43.770Z,1.00
2024-05-09T02:38:12.925Z,0.45
2024-05-09T02:40:41.360Z,0.65
2024-05-09T02:43:12.534Z,0.82
2024-05-09T02:45:41.675Z,0.75
2024-05-09T02:48:13.869Z,0.80
2024-05-09T02:50:44.356Z,0.50
2024-05-09T02:53:13.142Z,1.23
2024-05-09T02:55:42.408Z,0.63
2024-05-09T02:58:11.010Z,1.33
2024-05-09T03:00:41.679Z,0.50
2024-05-09T03:03:13.719Z,0.40
2024-05-09T03:05:44.829Z,0.77
2024-05-09T03:08:13.332Z,0.30
2024-05-09T03:10:41.249Z,0.38
2024-05-09T03:13:15.495Z,1.00
2024-05-09T03:15:45.105Z,1.05
2024-05-09T03:18:13.735Z,1.20
2024-05-09T03:20:44.098Z,0.10
2024-05-09T03:23:12.570Z,0.47
2024-05-09T03:25:40.653Z,0.65
2024-05-09T03:28:08.484Z,0.40
2024-05-09T03:30:41.325Z,0.60
2024-05-09T03:33:19.205Z,0.85
2024-05-09T03:35:49.186Z,0.52
2024-05-09T03:38:17.597Z,0.20
2024-05-09T03:40:50.688Z,0.30
2024-05-09T03:43:20.027Z,0.73
2024-05-09T03:45:50.251Z,0.10
2024-05-09T03:48:18.316Z,0.63
2024-05-09T03:50:46.305Z,0.28
2024-05-09T03:53:15.000Z,0.60
2024-05-09T03:55:42.880Z,0.40
2024-05-09T03:58:13.058Z,0.65
2024-05-09T04:00:42.359Z,0.38
2024-05-09T04:03:12.219Z,0.15
2024-05-09T04:05:42.842Z,0.35
2024-05-09T04:08:15.693Z,0.77
2024-05-09T04:10:43.980Z,0.60
2024-05-09T04:13:11.892Z,1.02
2024-05-09T04:15:39.941Z,0.75
2024-05-09T04:18:08.056Z,0.70
2024-05-09T04:20:39.429Z,0.30
2024-05-09T04:23:14.207Z,0.57
2024-05-09T04:25:45.472Z,0.40
2024-05-09T04:28:14.397Z,0.40
2024-05-09T04:30:42.854Z,0.45
2024-05-09T04:33:13.506Z,0.60
2024-05-09T04:35:43.780Z,1.10
2024-05-09T04:38:13.955Z,0.30
2024-05-09T04:40:42.562Z,0.90
2024-05-09T04:43:19.544Z,1.42
2024-05-09T04:45:47.518Z,0.93
2024-05-09T04:48:16.601Z,0.88
2024-05-09T04:50:44.872Z,1.13
2024-05-09T04:53:16.439Z,0.68
2024-05-09T04:55:44.647Z,0.93
2024-05-09T04:58:12.592Z,1.70
2024-05-09T05:00:41.648Z,0.50
2024-05-09T05:03:14.297Z,0.55
2024-05-09T05:05:45.246Z,0.68
2024-05-09T05:08:19.010Z,1.05
2024-05-09T05:10:48.889Z,0.85
2024-05-09T05:13:20.643Z,1.42
2024-05-09T05:15:57.059Z,1.40
2024-05-09T05:18:29.148Z,0.88
2024-05-09T05:20:58.577Z,1.15
2024-05-09T05:23:26.563Z,0.63
2024-05-09T05:25:55.369Z,0.95
2024-05-09T05:28:23.831Z,1.20
2024-05-09T05:30:51.780Z,1.00
2024-05-09T05:33:20.044Z,1.15
2024-05-09T05:35:48.335Z,1.33
2024-05-09T05:38:16.221Z,1.75
2024-05-09T05:40:44.120Z,0.88
2024-05-09T05:43:18.914Z,0.52
2024-05-09T05:45:47.254Z,1.60
2024-05-09T05:48:17.125Z,1.23
2024-05-09T05:50:45.763Z,2.35
2024-05-09T05:53:14.015Z,1.38
2024-05-09T05:55:42.481Z,0.77
2024-05-09T05:58:11.762Z,1.08
2024-05-09T06:00:42.089Z,2.17
2024-05-09T06:03:13.444Z,2.17
2024-05-09T06:05:44.151Z,1.48
2024-05-09T06:08:12.709Z,2.65
2024-05-09T06:10:41.636Z,2.58
2024-05-09T06:13:11.569Z,2.25
2024-05-09T06:15:40.552Z,3.03
2024-05-09T06:18:10.737Z,2.08
2024-05-09T06:20:43.310Z,1.88
2024-05-09T06:23:13.191Z,1.45
2024-05-09T06:25:42.406Z,2.20
2024-05-09T06:28:11.231Z,2.13
2024-05-09T06:30:42.264Z,1.45
2024-05-09T06:33:14.165Z,1.88
2024-05-09T06:35:44.933Z,2.50
2024-05-09T06:38:13.114Z,0.85
2024-05-09T06:40:43.900Z,1.38
2024-05-09T06:43:13.892Z,1.40
2024-05-09T06:45:41.823Z,0.88
2024-05-09T06:48:10.532Z,3.42
2024-05-09T06:50:40.069Z,1.67
2024-05-09T06:53:09.394Z,0.82
2024-05-09T06:55:37.980Z,1.52
2024-05-09T06:58:07.784Z,1.80
2024-05-09T07:00:39.750Z,1.35
2024-05-09T07:03:16.895Z,1.02
2024-05-09T07:05:48.222Z,2.58
2024-05-09T07:08:18.234Z,3.85
2024-05-09T07:10:46.470Z,1.60
2024-05-09T07:13:15.522Z,2.65
2024-05-09T07:15:43.885Z,2.30
2024-05-09T07:18:17.717Z,2.67
2024-05-09T07:20:50.941Z,1.27
2024-05-09T07:23:19.221Z,2.38
2024-05-09T07:25:47.314Z,2.42
2024-05-09T07:28:18.248Z,3.85
2024-05-09T07:30:46.652Z,3.60
2024-05-09T07:33:20.831Z,2.67
2024-05-09T07:35:50.135Z,1.83
2024-05-09T07:38:18.020Z,2.10
2024-05-09T07:40:46.001Z,2.67
2024-05-09T07:43:14.728Z,2.75
2024-05-09T07:45:51.383Z,1.40
2024-05-09T07:52:38.513Z,2.60
2024-05-09T07:53:47.475Z,5.10
2024-05-09T07:56:21.623Z,5.05
2024-05-09T07:58:52.525Z,5.90
2024-05-09T08:01:21.067Z,3.60
2024-05-09T08:03:50.725Z,3.50
2024-05-09T08:06:19.118Z,2.88
2024-05-09T08:08:47.696Z,4.43
2024-05-09T08:11:15.869Z,4.35
2024-05-09T08:13:43.714Z,4.32
2024-05-09T08:16:13.693Z,4.20
2024-05-09T08:18:42.674Z,2.17
2024-05-09T08:21:10.507Z,2.75
2024-05-09T08:23:38.308Z,3.50
2024-05-09T08:26:06.228Z,3.70
2024-05-09T08:28:34.042Z,2.40
2024-05-09T08:31:06.014Z,2.70
2024-05-09T08:33:34.932Z,5.32
2024-05-09T08:36:02.908Z,3.50
2024-05-09T08:38:30.685Z,3.38
2024-05-09T08:40:58.437Z,4.93
2024-05-09T08:43:27.819Z,3.85
2024-05-09T08:45:59.450Z,3.15
2024-05-09T08:48:27.551Z,2.30
2024-05-09T08:50:59.372Z,1.92
2024-05-09T08:53:27.512Z,4.22
2024-05-09T08:55:58.460Z,2.65
2024-05-09T08:58:26.843Z,3.22
2024-05-09T09:00:55.367Z,2.40
2024-05-09T09:03:28.122Z,2.50
2024-05-09T09:06:09.507Z,2.58
2024-05-09T09:08:39.513Z,3.13
2024-05-09T09:11:07.416Z,3.60
2024-05-09T09:13:35.173Z,1.95
2024-05-09T09:16:03.738Z,3.05
2024-05-09T09:18:33.149Z,1.92
2024-05-09T09:21:03.014Z,4.07
2024-05-09T09:23:31.120Z,3.35
2024-05-09T09:26:00.268Z,3.22
2024-05-09T09:28:28.309Z,4.43
2024-05-09T09:31:03.360Z,2.58
2024-05-09T09:33:31.917Z,2.15
2024-05-09T09:36:03.163Z,3.47
2024-05-09T09:38:32.893Z,3.08
2024-05-09T09:41:06.977Z,4.45
2024-05-09T09:43:37.190Z,2.80
2024-05-09T09:46:08.801Z,2.60
2024-05-09T09:48:40.520Z,1.95
2024-05-09T09:51:08.854Z,2.38
2024-05-09T09:53:38.635Z,3.25
2024-05-09T09:56:10.445Z,2.78
2024-05-09T09:58:40.375Z,3.08
2024-05-09T10:01:08.325Z,3.17
2024-05-09T10:03:36.813Z,1.80
2024-05-09T10:06:06.912Z,2.90
2024-05-09T10:08:36.267Z,4.45
2024-05-09T10:11:04.646Z,2.78
2024-05-09T10:13:34.980Z,3.25
2024-05-09T10:16:12.063Z,3.40
2024-05-09T10:18:41.515Z,2.53
2024-05-09T10:21:20.338Z,3.45
2024-05-09T10:24:03.522Z,2.70
2024-05-09T10:26:36.950Z,1.83
2024-05-09T10:31:48.077Z,1.38
2024-05-09T10:34:21.330Z,2.00
2024-05-09T10:36:56.493Z,3.60
2024-05-09T10:39:25.934Z,1.42
2024-05-09T10:41:53.807Z,2.20
2024-05-09T10:44:22.236Z,2.67
2024-05-09T10:46:50.742Z,2.05
2024-05-09T10:49:18.748Z,1.98
2024-05-09T10:51:48.476Z,2.03
2024-05-09T10:54:16.881Z,2.00
2024-05-09T10:56:44.811Z,1.58
2024-05-09T11:03:59.352Z,2.55
2024-05-09T11:06:28.902Z,2.33
2024-05-09T11:08:58.840Z,1.55
2024-05-09T11:11:27.552Z,1.95
2024-05-09T11:13:55.338Z,2.40
2024-05-09T11:16:23.358Z,2.63
2024-05-09T11:18:56.565Z,2.83
2024-05-09T11:21:25.265Z,1.65
2024-05-09T11:23:53.402Z,2.00
2024-05-09T11:26:22.352Z,2.35
2024-05-09T11:28:50.967Z,2.17
2024-05-09T11:31:19.172Z,1.58
2024-05-09T11:33:47.492Z,1.88
2024-05-09T11:36:16.115Z,1.67
2024-05-09T11:38:43.938Z,2.05
2024-05-09T11:41:18.600Z,2.92
2024-05-09T11:43:46.595Z,2.53
2024-05-09T11:46:14.701Z,2.30
2024-05-09T11:48:42.797Z,2.95
2024-05-09T11:51:10.683Z,1.73
2024-05-09T11:53:38.424Z,1.92
2024-05-09T11:56:06.518Z,2.42
2024-05-09T11:58:36.906Z,2.67
2024-05-09T12:01:05.089Z,2.60
2024-05-09T12:03:34.951Z,1.10
2024-05-09T12:06:03.663Z,2.28
2024-05-09T12:08:31.507Z,1.30
2024-05-09T12:10:59.612Z,2.97
2024-05-09T12:13:27.713Z,1.83
2024-05-09T12:15:55.591Z,0.98
2024-05-09T12:18:23.590Z,2.30
2024-05-09T12:20:51.341Z,2.30
2024-05-09T12:23:19.210Z,2.45
2024-05-09T12:25:47.057Z,3.22
2024-05-09T12:28:16.126Z,1.70
2024-05-09T12:30:43.975Z,1.75
2024-05-09T12:33:13.396Z,2.22
2024-05-09T12:35:44.457Z,1.52
2024-05-09T12:38:15.296Z,1.85
2024-05-09T12:40:43.700Z,2.22
2024-05-09T12:43:12.067Z,1.70
2024-05-09T12:45:40.568Z,2.25
2024-05-09T12:48:12.325Z,2.70
2024-05-09T12:50:42.001Z,1.92
2024-05-09T12:53:10.226Z,2.35
2024-05-09T12:55:45.009Z,2.30
2024-05-09T12:58:24.714Z,2.30
2024-05-09T13:00:53.025Z,2.03
2024-05-09T13:03:21.434Z,2.13
2024-05-09T13:05:52.585Z,1.70
2024-05-09T13:08:21.185Z,1.92
2024-05-09T13:10:50.463Z,2.47
2024-05-09T13:13:18.595Z,2.65
2024-05-09T13:15:46.439Z,2.53
2024-05-09T13:18:14.351Z,2.05
2024-05-09T13:20:42.173Z,1.10
2024-05-09T13:23:10.090Z,2.45
2024-05-09T13:25:38.439Z,1.48
2024-05-09T13:28:07.715Z,1.25
2024-05-09T13:30:40.536Z,1.05
2024-05-09T13:33:14.247Z,1.50
2024-05-09T13:35:47.211Z,3.30
2024-05-09T13:38:19.840Z,1.23
2024-05-09T13:40:49.047Z,2.28
2024-05-09T13:43:18.031Z,3.83
2024-05-09T13:45:46.639Z,3.35
2024-05-09T13:48:15.020Z,2.95
2024-05-09T13:50:42.973Z,2.30
2024-05-09T13:53:10.771Z,3.33
2024-05-09T13:55:39.508Z,1.92
2024-05-09T13:58:08.726Z,2.97
2024-05-09T14:00:46.653Z,2.42
2024-05-09T14:05:50.534Z,1.55
2024-05-09T14:08:22.568Z,2.30
2024-05-09T14:10:53.851Z,3.00
2024-05-09T14:13:21.945Z,2.15
2024-05-09T14:15:51.510Z,2.65
2024-05-09T14:18:19.680Z,3.15
2024-05-09T14:20:47.974Z,2.50
2024-05-09T14:23:17.912Z,3.72
2024-05-09T14:25:49.036Z,4.78
2024-05-09T14:28:20.586Z,5.55
2024-05-09T14:30:48.952Z,6.40
2024-05-09T14:33:23.672Z,4.40
2024-05-09T14:35:54.115Z,4.90
2024-05-09T14:38:24.508Z,4.22
2024-05-09T14:40:54.646Z,5.95
2024-05-09T14:43:24.841Z,4.15
2024-05-09T14:45:53.648Z,4.20
2024-05-09T14:48:23.228Z,4.25
2024-05-09T14:50:52.584Z,4.45
2024-05-09T14:53:23.661Z,5.53
2024-05-09T14:55:53.010Z,4.90
2024-05-09T14:58:23.308Z,3.65
2024-05-09T15:00:52.798Z,3.13
2024-05-09T15:03:22.872Z,2.63
2024-05-09T15:05:52.618Z,4.15
2024-05-09T15:08:22.825Z,3.85
2024-05-09T15:10:51.014Z,4.18
2024-05-09T15:13:21.515Z,3.92
2024-05-09T15:15:52.105Z,2.95
2024-05-09T15:18:21.870Z,3.25
2024-05-09T15:20:51.456Z,3.90
2024-05-09T15:23:20.786Z,3.97
2024-05-09T15:25:50.201Z,4.15
2024-05-09T15:28:19.978Z,3.35
2024-05-09T15:30:48.285Z,3.50
2024-05-09T15:33:17.869Z,4.25
2024-05-09T15:35:47.030Z,3.53
2024-05-09T15:38:16.108Z,3.40
2024-05-09T15:40:44.237Z,3.75
2024-05-09T15:43:13.912Z,3.80
2024-05-09T15:45:43.181Z,2.75
2024-05-09T15:48:12.341Z,4.10
2024-05-09T15:50:42.696Z,4.57
2024-05-09T15:53:13.603Z,3.95
2024-05-09T15:55:43.771Z,2.92
2024-05-09T15:58:12.508Z,2.95
2024-05-09T16:00:44.029Z,4.93
2024-05-09T16:03:14.623Z,3.20
2024-05-09T16:05:46.563Z,3.33
2024-05-09T16:08:16.809Z,2.67
2024-05-09T16:10:47.133Z,3.72
2024-05-09T16:13:16.657Z,2.40
2024-05-09T16:15:46.943Z,3.00
2024-05-09T16:18:15.967Z,3.20
2024-05-09T16:20:47.469Z,3.28
2024-05-09T16:23:17.791Z,2.88
2024-05-09T16:25:48.026Z,3.47
2024-05-09T16:28:18.736Z,3.38
2024-05-09T16:30:47.721Z,3.20
2024-05-09T16:33:19.443Z,2.25
2024-05-09T16:35:47.570Z,2.17
2024-05-09T16:38:15.433Z,3.00
2024-05-09T16:40:44.245Z,3.78
2024-05-09T16:43:13.531Z,4.00
2024-05-09T16:45:44.680Z,3.83
2024-05-09T16:48:14.549Z,2.42
2024-05-09T16:50:43.711Z,2.20
2024-05-09T16:53:11.681Z,2.80
2024-05-09T16:55:39.651Z,2.53
2024-05-09T16:58:08.403Z,2.80
2024-05-09T17:00:41.473Z,2.78
2024-05-09T17:03:14.438Z,2.45
2024-05-09T17:05:46.618Z,3.13
2024-05-09T17:08:18.555Z,2.03
2024-05-09T17:10:50.504Z,1.85
2024-05-09T17:13:19.368Z,2.00
2024-05-09T17:15:48.484Z,2.35
2024-05-09T17:18:16.822Z,1.08
2024-05-09T17:20:44.749Z,1.92
2024-05-09T17:23:14.439Z,1.50
2024-05-09T17:25:43.983Z,2.05
2024-05-09T17:28:12.410Z,1.48
2024-05-09T17:30:42.156Z,2.95
2024-05-09T17:33:11.920Z,1.88
2024-05-09T17:35:42.264Z,1.60
2024-05-09T17:38:11.300Z,1.73
2024-05-09T17:40:39.688Z,1.83
2024-05-09T17:43:10.742Z,1.67
2024-05-09T17:45:40.865Z,3.17
2024-05-09T17:48:11.668Z,1.85
2024-05-09T17:50:42.179Z,1.35
2024-05-09T17:53:11.150Z,2.47
2024-05-09T17:55:40.907Z,2.67
2024-05-09T17:58:09.445Z,1.95
2024-05-09T18:00:41.614Z,1.95
2024-05-09T18:03:12.340Z,1.73
2024-05-09T18:05:42.017Z,1.45
2024-05-09T18:08:10.511Z,2.13
2024-05-09T18:10:41.398Z,3.35
2024-05-09T18:13:10.718Z,1.65
2024-05-09T18:15:40.491Z,2.78
2024-05-09T18:18:10.646Z,2.83
2024-05-09T18:20:44.223Z,2.38
2024-05-09T18:23:16.680Z,2.53
2024-05-09T18:25:46.523Z,1.90
2024-05-09T18:28:15.683Z,2.72
2024-05-09T18:30:43.866Z,2.50
2024-05-09T18:33:12.355Z,2.65
2024-05-09T18:35:44.112Z,2.75
2024-05-09T18:38:12.021Z,2.95
2024-05-09T18:40:41.994Z,2.35
2024-05-09T18:43:11.720Z,2.30
2024-05-09T18:45:40.113Z,1.98
2024-05-09T18:48:10.132Z,2.30
2024-05-09T18:50:40.633Z,2.38
2024-05-09T18:53:12.578Z,2.45
2024-05-09T18:55:42.799Z,2.05
2024-05-09T18:58:11.203Z,1.75
2024-05-09T19:00:41.654Z,2.38
2024-05-09T19:03:13.828Z,1.73
2024-05-09T19:05:45.036Z,2.80
2024-05-09T19:08:15.422Z,1.27
2024-05-09T19:10:45.771Z,1.63
2024-05-09T19:13:15.195Z,1.77
2024-05-09T19:15:44.358Z,1.73
2024-05-09T19:18:15.844Z,2.53
2024-05-09T19:20:44.435Z,3.97
2024-05-09T19:23:12.436Z,1.73
2024-05-09T19:25:40.511Z,2.80
2024-05-09T19:28:08.532Z,1.90
2024-05-09T19:30:40.771Z,2.08
2024-05-09T19:33:14.593Z,1.65
2024-05-09T19:35:43.871Z,2.20
2024-05-09T19:38:12.243Z,1.63
2024-05-09T19:40:40.250Z,1.35
2024-05-09T19:43:08.238Z,2.08
2024-05-09T19:45:36.691Z,2.55
2024-05-09T19:48:06.431Z,2.10
2024-05-09T19:50:41.525Z,0.85
2024-05-09T19:53:13.411Z,2.05
2024-05-09T19:55:42.290Z,1.30
2024-05-09T19:58:11.388Z,1.40
2024-05-09T20:00:42.313Z,1.50
2024-05-09T20:03:14.112Z,1.50
2024-05-09T20:05:46.885Z,1.65
2024-05-09T20:08:15.321Z,1.58
2024-05-09T20:10:43.377Z,1.45
2024-05-09T20:13:11.440Z,1.85
2024-05-09T20:15:40.029Z,1.45
2024-05-09T20:18:09.009Z,2.75
2024-05-09T20:20:40.917Z,1.63
2024-05-09T20:23:12.365Z,2.50
2024-05-09T20:25:41.348Z,0.73
2024-05-09T20:28:09.813Z,1.58
2024-05-09T20:30:37.952Z,2.53
2024-05-09T20:33:07.813Z,1.27
2024-05-09T20:35:36.944Z,2.20
2024-05-09T20:38:05.445Z,1.40
2024-05-09T20:40:37.397Z,1.35
2024-05-09T20:45:36.932Z,2.97
2024-05-09T20:48:06.155Z,2.40
2024-05-09T20:50:39.285Z,1.77
2024-05-09T20:53:12.359Z,1.77
2024-05-09T20:55:41.410Z,1.70
2024-05-09T20:58:10.468Z,3.05
2024-05-09T21:00:42.317Z,2.78
2024-05-09T21:03:15.206Z,1.60
2024-05-09T21:05:44.527Z,1.80
2024-05-09T21:08:12.548Z,1.83
2024-05-09T21:10:40.429Z,2.47
2024-05-09T21:13:08.386Z,2.30
2024-05-09T21:15:36.632Z,2.30
2024-05-09T21:18:05.219Z,1.48
2024-05-09T21:20:35.144Z,1.35
2024-05-09T21:23:03.818Z,2.65
2024-05-09T21:25:32.306Z,1.90
2024-05-09T21:28:01.029Z,2.22
2024-05-09T21:30:38.503Z,1.25
2024-05-09T21:33:12.709Z,2.10
2024-05-09T21:35:43.565Z,1.58
2024-05-09T21:38:13.826Z,1.98
2024-05-09T21:40:42.907Z,2.30
2024-05-09T21:43:10.775Z,1.75
2024-05-09T21:45:38.705Z,1.38
2024-05-09T21:48:07.620Z,1.00
2024-05-09T21:50:40.030Z,1.73
2024-05-09T21:53:13.657Z,2.17
2024-05-09T21:55:46.151Z,2.20
2024-05-09T21:58:14.818Z,2.85
2024-05-09T22:00:45.628Z,2.38
2024-05-09T22:03:14.617Z,1.58
2024-05-09T22:05:44.782Z,1.05
2024-05-09T22:08:13.395Z,1.70
2024-05-09T22:10:41.292Z,1.35
2024-05-09T22:13:09.320Z,1.52
2024-05-09T22:15:39.920Z,1.52
2024-05-09T22:18:10.165Z,1.08
2024-05-09T22:20:46.681Z,2.05
2024-05-09T22:23:15.857Z,1.10
2024-05-09T22:25:43.879Z,1.52
2024-05-09T22:28:15.765Z,1.35
2024-05-09T22:30:46.100Z,1.83
2024-05-09T22:33:15.292Z,1.88
2024-05-09T22:35:43.196Z,2.72
2024-05-09T22:38:11.061Z,1.15
2024-05-09T22:40:46.949Z,1.83
2024-05-09T22:43:23.833Z,1.08
2024-05-09T22:45:56.710Z,1.23
2024-05-09T22:48:25.791Z,1.38
2024-05-09T22:50:54.752Z,3.53
2024-05-09T22:53:25.778Z,1.30
2024-05-09T22:55:54.186Z,2.33
2024-05-09T22:58:23.155Z,4.00
2024-05-09T23:00:51.360Z,2.08
2024-05-09T23:03:21.539Z,2.30
2024-05-09T23:05:49.729Z,2.03
2024-05-09T23:08:17.452Z,2.17
2024-05-09T23:10:45.282Z,2.53
2024-05-09T23:13:13.298Z,2.20
2024-05-09T23:15:41.249Z,1.30
2024-05-09T23:18:09.303Z,1.88
2024-05-09T23:20:39.469Z,2.88
2024-05-09T23:23:09.419Z,0.68
2024-05-09T23:25:38.108Z,2.15
2024-05-09T23:28:06.683Z,2.17
2024-05-09T23:30:38.750Z,2.10
2024-05-09T23:33:11.926Z,2.72
2024-05-09T23:35:42.511Z,1.17
2024-05-09T23:38:10.280Z,1.77
2024-05-09T23:40:40.516Z,1.23
2024-05-09T23:43:11.272Z,2.00
2024-05-09T23:45:40.185Z,2.47
2024-05-09T23:48:08.726Z,2.63
2024-05-09T23:50:38.686Z,1.23
2024-05-09T23:53:09.457Z,1.65
2024-05-09T23:55:38.476Z,1.33
2024-05-09T23:58:09.844Z,1.95
